sensor_id;sensor_type;location;lat;lon;timestamp;pressure;altitude;pressure_sealevel;temperature;humidity
79527;BME280;68974;47.754;-3.364;2024-01-11T00:00:06;102504.19;;;0.05;71.99
79527;BME280;68974;47.754;-3.364;2024-01-11T00:02:32;102505.84;;;0.06;71.66
79527;BME280;68974;47.754;-3.364;2024-01-11T00:04:57;102510.41;;;-0.03;72.26
79527;BME280;68974;47.754;-3.364;2024-01-11T00:07:23;102507.38;;;-0.08;72.64
79527;BME280;68974;47.754;-3.364;2024-01-11T00:09:48;102511.94;;;-0.01;72.72
79527;BME280;68974;47.754;-3.364;2024-01-11T00:12:14;102521.22;;;0.05;72.44
79527;BME280;68974;47.754;-3.364;2024-01-11T00:14:40;102515.81;;;0.05;72.82
79527;BME280;68974;47.754;-3.364;2024-01-11T00:17:05;102518.34;;;0.07;72.61
79527;BME280;68974;47.754;-3.364;2024-01-11T00:19:31;102524.06;;;0.20;72.08
79527;BME280;68974;47.754;-3.364;2024-01-11T00:21:57;102519.72;;;0.19;72.52
79527;BME280;68974;47.754;-3.364;2024-01-11T00:24:22;102523.25;;;0.19;72.47
79527;BME280;68974;47.754;-3.364;2024-01-11T00:26:48;102525.78;;;0.21;72.19
79527;BME280;68974;47.754;-3.364;2024-01-11T00:29:13;102527.47;;;0.22;72.43
79527;BME280;68974;47.754;-3.364;2024-01-11T00:31:39;102527.47;;;0.22;72.24
79527;BME280;68974;47.754;-3.364;2024-01-11T00:34:04;102529.16;;;0.23;72.29
79527;BME280;68974;47.754;-3.364;2024-01-11T00:36:30;102522.03;;;0.30;71.87
79527;BME280;68974;47.754;-3.364;2024-01-11T00:38:55;102521.88;;;0.15;71.97
79527;BME280;68974;47.754;-3.364;2024-01-11T00:41:21;102521.72;;;0.17;72.08
79527;BME280;68974;47.754;-3.364;2024-01-11T00:43:47;102517.00;;;0.19;72.09
79527;BME280;68974;47.754;-3.364;2024-01-11T00:46:12;102512.59;;;0.26;71.93
79527;BME280;68974;47.754;-3.364;2024-01-11T00:48:38;102510.22;;;0.15;71.77
79527;BME280;68974;47.754;-3.364;2024-01-11T00:51:04;102507.19;;;0.26;71.25
79527;BME280;68974;47.754;-3.364;2024-01-11T00:53:30;102516.34;;;0.09;71.36
79527;BME280;68974;47.754;-3.364;2024-01-11T00:55:57;102522.59;;;0.09;72.08
79527;BME280;68974;47.754;-3.364;2024-01-11T00:58:22;102523.25;;;0.03;71.44
79527;BME280;68974;47.754;-3.364;2024-01-11T01:00:48;102523.75;;;-0.10;72.31
79527;BME280;68974;47.754;-3.364;2024-01-11T01:03:15;102524.94;;;-0.20;72.42
79527;BME280;68974;47.754;-3.364;2024-01-11T01:05:41;102533.88;;;-0.20;72.63
79527;BME280;68974;47.754;-3.364;2024-01-11T01:08:07;102535.56;;;-0.19;72.33
79527;BME280;68974;47.754;-3.364;2024-01-11T01:10:32;102532.34;;;-0.30;72.28
79527;BME280;68974;47.754;-3.364;2024-01-11T01:12:58;102537.91;;;-0.32;72.89
79527;BME280;68974;47.754;-3.364;2024-01-11T01:15:23;102541.63;;;-0.25;72.62
79527;BME280;68974;47.754;-3.364;2024-01-11T01:17:48;102539.75;;;-0.24;72.91
79527;BME280;68974;47.754;-3.364;2024-01-11T01:20:14;102541.94;;;-0.36;72.25
79527;BME280;68974;47.754;-3.364;2024-01-11T01:22:40;102548.53;;;-0.30;72.43
79527;BME280;68974;47.754;-3.364;2024-01-11T01:25:05;102552.44;;;-0.25;72.54
79527;BME280;68974;47.754;-3.364;2024-01-11T01:27:31;102554.59;;;-0.36;72.53
79527;BME280;68974;47.754;-3.364;2024-01-11T01:29:56;102555.25;;;-0.43;72.84
79527;BME280;68974;47.754;-3.364;2024-01-11T01:32:22;102553.41;;;-0.50;73.09
79527;BME280;68974;47.754;-3.364;2024-01-11T01:34:47;102553.25;;;-0.40;72.58
79527;BME280;68974;47.754;-3.364;2024-01-11T01:37:13;102558.00;;;-0.34;72.60
79527;BME280;68974;47.754;-3.364;2024-01-11T01:39:38;102557.66;;;-0.39;72.58
79527;BME280;68974;47.754;-3.364;2024-01-11T01:42:05;102555.09;;;-0.49;72.90
79527;BME280;68974;47.754;-3.364;2024-01-11T01:44:31;102565.34;;;-0.53;72.95
79527;BME280;68974;47.754;-3.364;2024-01-11T01:46:56;102561.16;;;-0.47;73.54
79527;BME280;68974;47.754;-3.364;2024-01-11T01:49:22;102568.88;;;-0.60;72.79
79527;BME280;68974;47.754;-3.364;2024-01-11T01:51:48;102573.63;;;-0.54;73.20
79527;BME280;68974;47.754;-3.364;2024-01-11T01:54:15;102580.81;;;-0.63;73.83
79527;BME280;68974;47.754;-3.364;2024-01-11T01:56:41;102587.84;;;-0.78;74.00
79527;BME280;68974;47.754;-3.364;2024-01-11T01:59:07;102586.34;;;-0.80;74.32
79527;BME280;68974;47.754;-3.364;2024-01-11T02:01:34;102594.16;;;-0.61;74.30
79527;BME280;68974;47.754;-3.364;2024-01-11T02:03:59;102594.50;;;-0.64;74.29
79527;BME280;68974;47.754;-3.364;2024-01-11T02:06:25;102601.19;;;-0.76;74.00
79527;BME280;68974;47.754;-3.364;2024-01-11T02:08:54;102585.88;;;-0.68;73.94
79527;BME280;68974;47.754;-3.364;2024-01-11T02:11:21;102592.16;;;-0.59;73.85
79527;BME280;68974;47.754;-3.364;2024-01-11T02:13:50;102605.97;;;-0.62;73.94
79527;BME280;68974;47.754;-3.364;2024-01-11T02:16:16;102587.06;;;-0.70;73.29
79527;BME280;68974;47.754;-3.364;2024-01-11T02:18:41;102606.59;;;-0.68;73.49
79527;BME280;68974;47.754;-3.364;2024-01-11T02:21:09;102602.97;;;-0.59;73.57
79527;BME280;68974;47.754;-3.364;2024-01-11T02:26:26;102599.94;;;-0.48;72.54
79527;BME280;68974;47.754;-3.364;2024-01-11T02:28:52;102602.66;;;-0.48;72.73
79527;BME280;68974;47.754;-3.364;2024-01-11T02:31:17;102606.75;;;-0.44;72.92
79527;BME280;68974;47.754;-3.364;2024-01-11T02:33:43;102609.38;;;-0.52;72.50
79527;BME280;68974;47.754;-3.364;2024-01-11T02:36:08;102619.19;;;-0.43;72.74
79527;BME280;68974;47.754;-3.364;2024-01-11T02:38:34;102631.34;;;-0.39;72.06
79527;BME280;68974;47.754;-3.364;2024-01-11T02:41:00;102635.75;;;-0.38;71.92
79527;BME280;68974;47.754;-3.364;2024-01-11T02:43:26;102639.94;;;-0.44;72.55
79527;BME280;68974;47.754;-3.364;2024-01-11T02:45:55;102647.53;;;-0.47;73.04
79527;BME280;68974;47.754;-3.364;2024-01-11T02:48:21;102649.59;;;-0.41;72.35
79527;BME280;68974;47.754;-3.364;2024-01-11T02:50:48;102641.13;;;-0.46;72.43
79527;BME280;68974;47.754;-3.364;2024-01-11T02:53:14;102639.44;;;-0.47;72.26
79527;BME280;68974;47.754;-3.364;2024-01-11T02:55:39;102646.59;;;-0.30;71.92
79527;BME280;68974;47.754;-3.364;2024-01-11T02:58:05;102641.56;;;-0.25;71.55
79527;BME280;68974;47.754;-3.364;2024-01-11T03:00:30;102644.25;;;-0.25;71.33
79527;BME280;68974;47.754;-3.364;2024-01-11T03:02:56;102654.00;;;-0.32;71.87
79527;BME280;68974;47.754;-3.364;2024-01-11T03:05:21;102647.31;;;-0.20;71.29
79527;BME280;68974;47.754;-3.364;2024-01-11T03:07:46;102642.88;;;-0.29;71.48
79527;BME280;68974;47.754;-3.364;2024-01-11T03:10:12;102645.56;;;-0.37;71.57
79527;BME280;68974;47.754;-3.364;2024-01-11T03:12:39;102643.19;;;-0.40;71.61
79527;BME280;68974;47.754;-3.364;2024-01-11T03:15:04;102632.91;;;-0.28;71.91
79527;BME280;68974;47.754;-3.364;2024-01-11T03:17:30;102639.56;;;-0.15;71.37
79527;BME280;68974;47.754;-3.364;2024-01-11T03:19:55;102649.97;;;-0.28;71.16
79527;BME280;68974;47.754;-3.364;2024-01-11T03:22:21;102658.78;;;-0.26;71.77
79527;BME280;68974;47.754;-3.364;2024-01-11T03:24:46;102649.81;;;-0.34;71.71
79527;BME280;68974;47.754;-3.364;2024-01-11T03:27:12;102652.13;;;-0.39;71.37
79527;BME280;68974;47.754;-3.364;2024-01-11T03:29:37;102663.47;;;-0.28;71.43
79527;BME280;68974;47.754;-3.364;2024-01-11T03:32:03;102658.41;;;-0.31;71.54
79527;BME280;68974;47.754;-3.364;2024-01-11T03:34:28;102657.19;;;-0.45;71.17
79527;BME280;68974;47.754;-3.364;2024-01-11T03:36:54;102649.50;;;-0.57;71.87
79527;BME280;68974;47.754;-3.364;2024-01-11T03:39:19;102648.16;;;-0.61;72.13
79527;BME280;68974;47.754;-3.364;2024-01-11T03:41:45;102645.44;;;-0.61;71.76
79527;BME280;68974;47.754;-3.364;2024-01-11T03:44:12;102645.72;;;-0.72;72.43
79527;BME280;68974;47.754;-3.364;2024-01-11T03:46:37;102642.41;;;-0.66;72.30
79527;BME280;68974;47.754;-3.364;2024-01-11T03:49:03;102645.44;;;-0.61;72.33
79527;BME280;68974;47.754;-3.364;2024-01-11T03:51:28;102649.47;;;-0.73;72.42
79527;BME280;68974;47.754;-3.364;2024-01-11T03:53:54;102651.09;;;-0.80;72.48
79527;BME280;68974;47.754;-3.364;2024-01-11T03:56:19;102648.03;;;-0.85;72.89
79527;BME280;68974;47.754;-3.364;2024-01-11T03:58:45;102649.03;;;-0.87;73.52
79527;BME280;68974;47.754;-3.364;2024-01-11T04:01:10;102642.28;;;-0.82;72.55
79527;BME280;68974;47.754;-3.364;2024-01-11T04:03:36;102650.34;;;-0.91;72.81
79527;BME280;68974;47.754;-3.364;2024-01-11T04:06:03;102657.06;;;-0.95;73.24
79527;BME280;68974;47.754;-3.364;2024-01-11T04:08:28;102646.28;;;-0.95;73.26
79527;BME280;68974;47.754;-3.364;2024-01-11T04:10:54;102655.72;;;-0.99;73.34
79527;BME280;68974;47.754;-3.364;2024-01-11T04:13:19;102649.13;;;-0.96;73.00
79527;BME280;68974;47.754;-3.364;2024-01-11T04:15:45;102646.59;;;-0.98;73.21
79527;BME280;68974;47.754;-3.364;2024-01-11T04:18:10;102654.38;;;-0.95;73.24
79527;BME280;68974;47.754;-3.364;2024-01-11T04:20:35;102658.44;;;-0.91;72.96
79527;BME280;68974;47.754;-3.364;2024-01-11T04:23:01;102670.56;;;-0.95;73.47
79527;BME280;68974;47.754;-3.364;2024-01-11T04:25:26;102660.06;;;-0.98;73.12
79527;BME280;68974;47.754;-3.364;2024-01-11T04:27:52;102672.03;;;-1.00;73.22
79527;BME280;68974;47.754;-3.364;2024-01-11T04:30:17;102664.81;;;-1.00;73.40
79527;BME280;68974;47.754;-3.364;2024-01-11T04:32:42;102676.25;;;-0.98;73.24
79527;BME280;68974;47.754;-3.364;2024-01-11T04:35:08;102677.69;;;-0.85;72.58
79527;BME280;68974;47.754;-3.364;2024-01-11T04:37:33;102676.09;;;-0.96;72.41
79527;BME280;68974;47.754;-3.364;2024-01-11T04:40:00;102670.56;;;-0.95;72.22
79527;BME280;68974;47.754;-3.364;2024-01-11T04:42:29;102666.91;;;-0.85;72.40
79527;BME280;68974;47.754;-3.364;2024-01-11T04:44:54;102674.88;;;-0.76;71.56
79527;BME280;68974;47.754;-3.364;2024-01-11T04:47:19;102674.63;;;-0.91;71.85
79527;BME280;68974;47.754;-3.364;2024-01-11T04:49:46;102673.38;;;-1.04;72.05
79527;BME280;68974;47.754;-3.364;2024-01-11T04:52:11;102680.13;;;-1.00;72.95
79527;BME280;68974;47.754;-3.364;2024-01-11T04:54:37;102680.47;;;-1.03;72.21
79527;BME280;68974;47.754;-3.364;2024-01-11T04:57:03;102676.91;;;-1.04;72.56
79527;BME280;68974;47.754;-3.364;2024-01-11T04:59:29;102690.91;;;-1.00;72.74
79527;BME280;68974;47.754;-3.364;2024-01-11T05:01:54;102687.00;;;-1.06;72.20
79527;BME280;68974;47.754;-3.364;2024-01-11T05:04:20;102683.63;;;-1.08;72.09
79527;BME280;68974;47.754;-3.364;2024-01-11T05:06:45;102682.69;;;-0.99;71.92
79527;BME280;68974;47.754;-3.364;2024-01-11T05:09:12;102686.91;;;-0.96;72.01
79527;BME280;68974;47.754;-3.364;2024-01-11T05:11:39;102679.97;;;-0.99;71.30
79527;BME280;68974;47.754;-3.364;2024-01-11T05:14:04;102672.75;;;-0.98;72.25
79527;BME280;68974;47.754;-3.364;2024-01-11T05:16:30;102688.44;;;-0.94;71.58
79527;BME280;68974;47.754;-3.364;2024-01-11T05:18:57;102691.56;;;-0.80;71.09
79527;BME280;68974;47.754;-3.364;2024-01-11T05:21:23;102690.34;;;-0.86;70.88
79527;BME280;68974;47.754;-3.364;2024-01-11T05:23:49;102700.66;;;-0.81;70.81
79527;BME280;68974;47.754;-3.364;2024-01-11T05:26:16;102696.09;;;-0.81;70.34
79527;BME280;68974;47.754;-3.364;2024-01-11T05:28:42;102709.88;;;-0.66;70.33
79527;BME280;68974;47.754;-3.364;2024-01-11T05:31:10;102704.13;;;-0.63;70.12
79527;BME280;68974;47.754;-3.364;2024-01-11T05:33:36;102701.72;;;-0.74;69.54
79527;BME280;68974;47.754;-3.364;2024-01-11T05:36:01;102700.97;;;-0.84;70.51
79527;BME280;68974;47.754;-3.364;2024-01-11T05:38:28;102700.13;;;-0.85;70.60
79527;BME280;68974;47.754;-3.364;2024-01-11T05:40:53;102696.25;;;-0.82;69.76
79527;BME280;68974;47.754;-3.364;2024-01-11T05:43:19;102702.47;;;-0.90;70.46
79527;BME280;68974;47.754;-3.364;2024-01-11T05:45:44;102694.22;;;-0.89;70.56
79527;BME280;68974;47.754;-3.364;2024-01-11T05:48:10;102697.28;;;-0.83;69.89
79527;BME280;68974;47.754;-3.364;2024-01-11T05:50:36;102708.16;;;-0.67;69.80
79527;BME280;68974;47.754;-3.364;2024-01-11T05:53:01;102701.72;;;-0.74;69.44
79527;BME280;68974;47.754;-3.364;2024-01-11T05:55:27;102706.78;;;-0.71;69.63
79527;BME280;68974;47.754;-3.364;2024-01-11T05:57:53;102703.84;;;-0.60;68.90
79527;BME280;68974;47.754;-3.364;2024-01-11T06:00:19;102711.84;;;-0.68;69.42
79527;BME280;68974;47.754;-3.364;2024-01-11T06:02:44;102715.25;;;-0.66;68.63
79527;BME280;68974;47.754;-3.364;2024-01-11T06:05:10;102711.78;;;-0.59;68.15
79527;BME280;68974;47.754;-3.364;2024-01-11T06:07:35;102724.59;;;-0.53;68.51
79527;BME280;68974;47.754;-3.364;2024-01-11T06:10:01;102719.50;;;-0.64;69.17
79527;BME280;68974;47.754;-3.364;2024-01-11T06:12:28;102725.44;;;-0.60;69.12
79527;BME280;68974;47.754;-3.364;2024-01-11T06:14:54;102737.06;;;-0.60;69.44
79527;BME280;68974;47.754;-3.364;2024-01-11T06:17:19;102728.25;;;-0.36;68.48
79527;BME280;68974;47.754;-3.364;2024-01-11T06:19:44;102728.56;;;-0.39;68.89
79527;BME280;68974;47.754;-3.364;2024-01-11T06:22:10;102729.78;;;-0.33;68.83
79527;BME280;68974;47.754;-3.364;2024-01-11T06:24:36;102724.22;;;-0.32;68.44
79527;BME280;68974;47.754;-3.364;2024-01-11T06:27:01;102732.69;;;-0.27;69.08
79527;BME280;68974;47.754;-3.364;2024-01-11T06:29:27;102730.91;;;-0.10;67.87
79527;BME280;68974;47.754;-3.364;2024-01-11T06:31:52;102734.44;;;-0.10;68.31
79527;BME280;68974;47.754;-3.364;2024-01-11T06:34:18;102734.44;;;-0.10;68.11
79527;BME280;68974;47.754;-3.364;2024-01-11T06:36:43;102739.53;;;-0.07;67.82
79527;BME280;68974;47.754;-3.364;2024-01-11T06:39:09;102742.09;;;-0.05;68.30
79527;BME280;68974;47.754;-3.364;2024-01-11T06:41:35;102752.06;;;0.03;67.82
79527;BME280;68974;47.754;-3.364;2024-01-11T06:44:00;102750.34;;;-0.07;67.72
79527;BME280;68974;47.754;-3.364;2024-01-11T06:46:26;102760.88;;;0.05;67.92
79527;BME280;68974;47.754;-3.364;2024-01-11T06:48:52;102767.56;;;0.00;68.11
79527;BME280;68974;47.754;-3.364;2024-01-11T06:51:20;102764.44;;;0.13;67.41
79527;BME280;68974;47.754;-3.364;2024-01-11T06:53:46;102758.66;;;0.08;67.47
79527;BME280;68974;47.754;-3.364;2024-01-11T06:56:19;102762.16;;;0.00;68.02
79527;BME280;68974;47.754;-3.364;2024-01-11T06:58:45;102765.56;;;0.03;67.79
79527;BME280;68974;47.754;-3.364;2024-01-11T07:01:11;102764.59;;;0.12;67.79
79527;BME280;68974;47.754;-3.364;2024-01-11T07:03:37;102764.38;;;0.05;67.73
79527;BME280;68974;47.754;-3.364;2024-01-11T07:06:03;102764.25;;;0.15;67.83
79527;BME280;68974;47.754;-3.364;2024-01-11T07:08:29;102764.94;;;0.09;67.59
79527;BME280;68974;47.754;-3.364;2024-01-11T07:10:55;102777.81;;;0.23;67.73
79527;BME280;68974;47.754;-3.364;2024-01-11T07:13:20;102762.03;;;0.10;67.79
79527;BME280;68974;47.754;-3.364;2024-01-11T07:15:46;102772.34;;;0.07;68.08
79527;BME280;68974;47.754;-3.364;2024-01-11T07:18:13;102765.94;;;0.16;67.90
79527;BME280;68974;47.754;-3.364;2024-01-11T07:20:38;102774.09;;;0.24;68.17
79527;BME280;68974;47.754;-3.364;2024-01-11T07:23:04;102781.16;;;0.17;67.69
79527;BME280;68974;47.754;-3.364;2024-01-11T07:25:29;102775.47;;;0.28;67.54
79527;BME280;68974;47.754;-3.364;2024-01-11T07:27:55;102787.78;;;0.22;68.08
79527;BME280;68974;47.754;-3.364;2024-01-11T07:30:21;102780.88;;;0.28;68.20
79527;BME280;68974;47.754;-3.364;2024-01-11T07:32:46;102774.78;;;0.26;68.44
79527;BME280;68974;47.754;-3.364;2024-01-11T07:35:12;102776.81;;;0.24;68.14
79527;BME280;68974;47.754;-3.364;2024-01-11T07:37:38;102782.22;;;0.24;68.30
79527;BME280;68974;47.754;-3.364;2024-01-11T07:40:05;102783.06;;;0.24;69.05
79527;BME280;68974;47.754;-3.364;2024-01-11T07:42:35;102778.19;;;0.36;68.31
79527;BME280;68974;47.754;-3.364;2024-01-11T07:45:01;102778.19;;;0.36;68.66
79527;BME280;68974;47.754;-3.364;2024-01-11T07:47:26;102792.06;;;0.49;68.21
79527;BME280;68974;47.754;-3.364;2024-01-11T07:49:52;102794.25;;;0.46;68.81
79527;BME280;68974;47.754;-3.364;2024-01-11T07:52:17;102801.72;;;0.43;68.54
79527;BME280;68974;47.754;-3.364;2024-01-11T07:54:43;102796.81;;;0.47;68.61
79527;BME280;68974;47.754;-3.364;2024-01-11T07:57:08;102792.06;;;0.49;68.76
79527;BME280;68974;47.754;-3.364;2024-01-11T07:59:34;102800.22;;;0.57;68.45
79527;BME280;68974;47.754;-3.364;2024-01-11T08:02:03;102802.06;;;0.57;68.47
79527;BME280;68974;47.754;-3.364;2024-01-11T08:04:29;102801.88;;;0.50;68.77
79527;BME280;68974;47.754;-3.364;2024-01-11T08:06:54;102802.06;;;0.57;68.62
79527;BME280;68974;47.754;-3.364;2024-01-11T08:09:20;102797.69;;;0.64;68.28
79527;BME280;68974;47.754;-3.364;2024-01-11T08:11:45;102783.69;;;0.68;68.78
79527;BME280;68974;47.754;-3.364;2024-01-11T08:14:11;102788.25;;;0.68;68.52
79527;BME280;68974;47.754;-3.364;2024-01-11T08:16:37;102792.66;;;0.77;68.05
79527;BME280;68974;47.754;-3.364;2024-01-11T08:19:03;102789.25;;;0.75;68.56
79527;BME280;68974;47.754;-3.364;2024-01-11T08:21:28;102788.41;;;0.74;68.90
79527;BME280;68974;47.754;-3.364;2024-01-11T08:23:54;102798.56;;;0.80;68.70
79527;BME280;68974;47.754;-3.364;2024-01-11T08:26:20;102803.31;;;0.86;68.47
79527;BME280;68974;47.754;-3.364;2024-01-11T08:28:47;102786.06;;;0.88;68.61
79527;BME280;68974;47.754;-3.364;2024-01-11T08:31:13;102798.22;;;0.83;69.08
79527;BME280;68974;47.754;-3.364;2024-01-11T08:33:38;102799.75;;;0.94;68.60
79527;BME280;68974;47.754;-3.364;2024-01-11T08:36:07;102806.38;;;0.92;68.65
79527;BME280;68974;47.754;-3.364;2024-01-11T08:38:32;102809.72;;;0.94;68.60
79527;BME280;68974;47.754;-3.364;2024-01-11T08:40:59;102810.09;;;1.07;68.01
79527;BME280;68974;47.754;-3.364;2024-01-11T08:43:28;102817.53;;;1.05;68.40
79527;BME280;68974;47.754;-3.364;2024-01-11T08:45:53;102830.06;;;1.14;68.11
79527;BME280;68974;47.754;-3.364;2024-01-11T08:48:19;102830.41;;;1.11;68.29
79527;BME280;68974;47.754;-3.364;2024-01-11T08:50:44;102836.31;;;1.14;68.48
79527;BME280;68974;47.754;-3.364;2024-01-11T08:53:10;102833.09;;;1.11;68.28
79527;BME280;68974;47.754;-3.364;2024-01-11T08:55:35;102836.16;;;1.16;68.14
79527;BME280;68974;47.754;-3.364;2024-01-11T08:58:01;102853.75;;;1.44;70.16
79527;BME280;68974;47.754;-3.364;2024-01-11T09:00:26;102845.13;;;1.49;68.21
79527;BME280;68974;47.754;-3.364;2024-01-11T09:02:52;102838.53;;;1.51;67.15
79527;BME280;68974;47.754;-3.364;2024-01-11T09:05:17;102844.97;;;1.50;67.15
79527;BME280;68974;47.754;-3.364;2024-01-11T09:07:43;102852.25;;;1.42;67.91
79527;BME280;68974;47.754;-3.364;2024-01-11T09:10:09;102861.19;;;1.42;67.58
79527;BME280;68974;47.754;-3.364;2024-01-11T09:12:35;102866.28;;;1.45;67.66
79527;BME280;68974;47.754;-3.364;2024-01-11T09:15:01;102868.66;;;1.48;67.25
79527;BME280;68974;47.754;-3.364;2024-01-11T09:17:26;102880.16;;;1.42;67.44
79527;BME280;68974;47.754;-3.364;2024-01-11T09:19:52;102878.13;;;1.52;67.14
79527;BME280;68974;47.754;-3.364;2024-01-11T09:22:17;102886.25;;;1.52;67.26
79527;BME280;68974;47.754;-3.364;2024-01-11T09:24:43;102885.56;;;1.58;67.48
79527;BME280;68974;47.754;-3.364;2024-01-11T09:27:08;102885.06;;;1.55;67.21
79527;BME280;68974;47.754;-3.364;2024-01-11T09:29:34;102883.03;;;1.65;66.99
79527;BME280;68974;47.754;-3.364;2024-01-11T09:31:59;102879.66;;;1.71;66.89
79527;BME280;68974;47.754;-3.364;2024-01-11T09:34:25;102881.69;;;1.69;66.85
79527;BME280;68974;47.754;-3.364;2024-01-11T09:36:50;102888.94;;;1.85;66.80
79527;BME280;68974;47.754;-3.364;2024-01-11T09:39:17;102891.94;;;2.14;65.67
79527;BME280;68974;47.754;-3.364;2024-01-11T09:41:49;102888.03;;;2.64;63.75
79527;BME280;68974;47.754;-3.364;2024-01-11T09:44:17;102878.22;;;2.54;63.71
79527;BME280;68974;47.754;-3.364;2024-01-11T09:46:43;102889.06;;;2.54;64.32
79527;BME280;68974;47.754;-3.364;2024-01-11T09:49:10;102891.47;;;2.49;64.39
79527;BME280;68974;47.754;-3.364;2024-01-11T09:51:37;102885.34;;;2.55;63.98
79527;BME280;68974;47.754;-3.364;2024-01-11T09:54:04;102907.03;;;2.64;63.85
79527;BME280;68974;47.754;-3.364;2024-01-11T09:56:31;102916.72;;;2.58;64.35
79527;BME280;68974;47.754;-3.364;2024-01-11T09:58:57;102905.88;;;2.58;64.25
79527;BME280;68974;47.754;-3.364;2024-01-11T10:01:23;102907.38;;;2.60;64.90
79527;BME280;68974;47.754;-3.364;2024-01-11T10:03:49;102925.38;;;2.53;64.36
79527;BME280;68974;47.754;-3.364;2024-01-11T10:06:17;102921.34;;;2.41;65.29
79527;BME280;68974;47.754;-3.364;2024-01-11T10:08:43;102929.44;;;2.49;65.20
79527;BME280;68974;47.754;-3.364;2024-01-11T10:11:08;102938.25;;;2.51;65.15
79527;BME280;68974;47.754;-3.364;2024-01-11T10:13:34;102949.28;;;2.58;65.40
79527;BME280;68974;47.754;-3.364;2024-01-11T10:16:12;102930.44;;;2.56;65.63
79527;BME280;68974;47.754;-3.364;2024-01-11T10:18:43;102932.28;;;2.64;65.69
79527;BME280;68974;47.754;-3.364;2024-01-11T10:21:09;102934.81;;;2.66;65.75
79527;BME280;68974;47.754;-3.364;2024-01-11T10:23:38;102943.06;;;2.80;65.33
79527;BME280;68974;47.754;-3.364;2024-01-11T10:26:04;102942.22;;;2.80;65.52
79527;BME280;68974;47.754;-3.364;2024-01-11T10:28:30;102939.13;;;2.91;65.52
79527;BME280;68974;47.754;-3.364;2024-01-11T10:30:56;102943.16;;;2.95;64.92
79527;BME280;68974;47.754;-3.364;2024-01-11T10:33:22;102949.59;;;3.02;65.89
79527;BME280;68974;47.754;-3.364;2024-01-11T10:35:51;102947.53;;;3.04;65.09
79527;BME280;68974;47.754;-3.364;2024-01-11T10:38:17;102970.91;;;3.13;65.27
79527;BME280;68974;47.754;-3.364;2024-01-11T10:40:43;102946.13;;;3.16;64.97
79527;BME280;68974;47.754;-3.364;2024-01-11T10:43:10;102945.72;;;3.27;64.91
79527;BME280;68974;47.754;-3.364;2024-01-11T10:45:40;102954.75;;;3.42;63.98
79527;BME280;68974;47.754;-3.364;2024-01-11T10:48:15;102969.66;;;3.92;72.27
79527;BME280;68974;47.754;-3.364;2024-01-11T10:50:46;102955.47;;;3.82;62.86
79527;BME280;68974;47.754;-3.364;2024-01-11T10:55:59;102956.22;;;4.13;62.40
79527;BME280;68974;47.754;-3.364;2024-01-11T10:58:26;102954.66;;;4.33;60.80
79527;BME280;68974;47.754;-3.364;2024-01-11T11:00:53;102957.97;;;4.73;60.32
79527;BME280;68974;47.754;-3.364;2024-01-11T11:03:19;102959.84;;;5.23;58.87
79527;BME280;68974;47.754;-3.364;2024-01-11T11:05:47;102950.88;;;5.65;57.73
79527;BME280;68974;47.754;-3.364;2024-01-11T11:08:13;102959.84;;;5.80;57.00
79527;BME280;68974;47.754;-3.364;2024-01-11T11:10:40;102946.97;;;5.53;56.96
79527;BME280;68974;47.754;-3.364;2024-01-11T11:13:08;102962.88;;;5.49;57.25
79527;BME280;68974;47.754;-3.364;2024-01-11T11:15:35;102962.34;;;5.03;58.55
79527;BME280;68974;47.754;-3.364;2024-01-11T11:18:02;102967.41;;;5.06;58.64
79527;BME280;68974;47.754;-3.364;2024-01-11T11:20:29;102980.06;;;5.14;58.66
79527;BME280;68974;47.754;-3.364;2024-01-11T11:23:08;102968.47;;;4.91;59.68
79527;BME280;68974;47.754;-3.364;2024-01-11T11:25:38;102981.69;;;4.79;59.53
79527;BME280;68974;47.754;-3.364;2024-01-11T11:28:05;102973.81;;;4.55;60.37
79527;BME280;68974;47.754;-3.364;2024-01-11T11:30:31;102978.94;;;4.35;60.98
79527;BME280;68974;47.754;-3.364;2024-01-11T11:32:56;102976.06;;;4.36;61.73
79527;BME280;68974;47.754;-3.364;2024-01-11T11:35:23;102974.53;;;4.19;62.36
79527;BME280;68974;47.754;-3.364;2024-01-11T11:37:56;102970.16;;;4.62;61.07
79527;BME280;68974;47.754;-3.364;2024-01-11T11:40:32;102963.56;;;5.01;60.66
79527;BME280;68974;47.754;-3.364;2024-01-11T11:42:58;102961.84;;;5.72;58.56
79527;BME280;68974;47.754;-3.364;2024-01-11T11:45:25;102955.78;;;5.91;57.43
79527;BME280;68974;47.754;-3.364;2024-01-11T11:47:51;102959.84;;;5.80;58.13
79527;BME280;68974;47.754;-3.364;2024-01-11T11:50:16;102968.50;;;5.48;59.65
79527;BME280;68974;47.754;-3.364;2024-01-11T11:52:44;102973.72;;;5.07;61.62
79527;BME280;68974;47.754;-3.364;2024-01-11T11:55:11;102967.72;;;4.97;62.34
79527;BME280;68974;47.754;-3.364;2024-01-11T11:57:37;102970.00;;;4.78;63.82
79527;BME280;68974;47.754;-3.364;2024-01-11T12:00:03;102962.00;;;4.77;63.56
79527;BME280;68974;47.754;-3.364;2024-01-11T12:02:32;102968.09;;;4.79;63.29
79527;BME280;68974;47.754;-3.364;2024-01-11T12:05:01;102970.06;;;4.85;63.82
79527;BME280;68974;47.754;-3.364;2024-01-11T12:07:27;102970.72;;;4.87;63.02
79527;BME280;68974;47.754;-3.364;2024-01-11T12:09:52;102963.09;;;4.97;63.09
79527;BME280;68974;47.754;-3.364;2024-01-11T12:12:18;102959.34;;;4.98;62.96
79527;BME280;68974;47.754;-3.364;2024-01-11T12:14:48;102960.94;;;5.07;62.14
79527;BME280;68974;47.754;-3.364;2024-01-11T12:17:15;102960.19;;;5.35;61.95
79527;BME280;68974;47.754;-3.364;2024-01-11T12:19:41;102954.50;;;5.51;61.56
79527;BME280;68974;47.754;-3.364;2024-01-11T12:22:06;102952.06;;;5.56;61.08
79527;BME280;68974;47.754;-3.364;2024-01-11T12:24:32;102943.91;;;5.84;60.23
79527;BME280;68974;47.754;-3.364;2024-01-11T12:26:59;102943.63;;;7.57;56.66
79527;BME280;68974;47.754;-3.364;2024-01-11T12:29:25;102936.47;;;9.50;50.22
79527;BME280;68974;47.754;-3.364;2024-01-11T12:31:51;102926.38;;;10.86;45.10
79527;BME280;68974;47.754;-3.364;2024-01-11T12:34:17;102926.78;;;11.80;42.75
79527;BME280;68974;47.754;-3.364;2024-01-11T12:36:42;102923.94;;;12.56;41.38
79527;BME280;68974;47.754;-3.364;2024-01-11T12:39:08;102911.16;;;13.30;39.55
79527;BME280;68974;47.754;-3.364;2024-01-11T12:41:35;102915.59;;;13.59;38.54
79527;BME280;68974;47.754;-3.364;2024-01-11T12:44:01;102920.81;;;13.16;39.43